sensor_id;sensor_type;location;lat;lon;timestamp;temperature;humidity
75786;DHT22;64402;44.708;37.644;2023-02-24T00:01:21;-4.93;78.95
75786;DHT22;64402;44.708;37.644;2023-02-24T00:03:51;-4.95;78.30
75786;DHT22;64402;44.708;37.644;2023-02-24T00:06:17;-4.97;79.20
75786;DHT22;64402;44.708;37.644;2023-02-24T00:08:44;-5.04;79.71
75786;DHT22;64402;44.708;37.644;2023-02-24T00:11:12;-5.07;79.60
75786;DHT22;64402;44.708;37.644;2023-02-24T00:13:40;-5.10;78.90
75786;DHT22;64402;44.708;37.644;2023-02-24T00:16:12;-5.10;79.14
75786;DHT22;64402;44.708;37.644;2023-02-24T00:18:39;-5.11;78.79
75786;DHT22;64402;44.708;37.644;2023-02-24T00:21:07;-5.12;78.94
75786;DHT22;64402;44.708;37.644;2023-02-24T00:23:36;-5.10;79.59
75786;DHT22;64402;44.708;37.644;2023-02-24T00:26:04;-5.13;78.72
75786;DHT22;64402;44.708;37.644;2023-02-24T00:28:32;-5.13;78.84
75786;DHT22;64402;44.708;37.644;2023-02-24T00:31:18;-5.15;78.63
75786;DHT22;64402;44.708;37.644;2023-02-24T00:33:45;-5.09;78.86
75786;DHT22;64402;44.708;37.644;2023-02-24T00:36:15;-5.08;78.13
75786;DHT22;64402;44.708;37.644;2023-02-24T00:38:42;-5.07;77.86
75786;DHT22;64402;44.708;37.644;2023-02-24T00:41:14;-5.04;76.87
75786;DHT22;64402;44.708;37.644;2023-02-24T00:43:42;-5.01;78.18
75786;DHT22;64402;44.708;37.644;2023-02-24T00:46:22;-5.01;78.35
75786;DHT22;64402;44.708;37.644;2023-02-24T00:48:52;-5.01;77.54
75786;DHT22;64402;44.708;37.644;2023-02-24T00:51:25;-5.03;78.03
75786;DHT22;64402;44.708;37.644;2023-02-24T00:53:54;-5.03;77.00
75786;DHT22;64402;44.708;37.644;2023-02-24T00:56:25;-5.04;79.25
75786;DHT22;64402;44.708;37.644;2023-02-24T00:58:55;-5.05;80.14
75786;DHT22;64402;44.708;37.644;2023-02-24T01:01:24;-5.08;80.44
75786;DHT22;64402;44.708;37.644;2023-02-24T01:03:52;-5.13;79.78
75786;DHT22;64402;44.708;37.644;2023-02-24T01:06:23;-5.18;79.04
75786;DHT22;64402;44.708;37.644;2023-02-24T01:08:51;-5.20;79.71
75786;DHT22;64402;44.708;37.644;2023-02-24T01:11:21;-5.16;78.39
75786;DHT22;64402;44.708;37.644;2023-02-24T01:14:09;-5.05;77.48
75786;DHT22;64402;44.708;37.644;2023-02-24T01:16:35;-4.99;77.29
75786;DHT22;64402;44.708;37.644;2023-02-24T01:19:03;-4.99;76.78
75786;DHT22;64402;44.708;37.644;2023-02-24T01:21:30;-4.97;76.63
75786;DHT22;64402;44.708;37.644;2023-02-24T01:23:57;-4.95;76.67
75786;DHT22;64402;44.708;37.644;2023-02-24T01:26:23;-4.95;77.45
75786;DHT22;64402;44.708;37.644;2023-02-24T01:28:52;-4.99;77.64
75786;DHT22;64402;44.708;37.644;2023-02-24T01:31:19;-5.04;78.85
75786;DHT22;64402;44.708;37.644;2023-02-24T01:33:49;-5.11;79.24
75786;DHT22;64402;44.708;37.644;2023-02-24T01:36:23;-5.25;78.21
75786;DHT22;64402;44.708;37.644;2023-02-24T01:38:50;-5.31;79.19
75786;DHT22;64402;44.708;37.644;2023-02-24T01:41:22;-5.34;80.44
75786;DHT22;64402;44.708;37.644;2023-02-24T01:44:05;-5.44;79.71
75786;DHT22;64402;44.708;37.644;2023-02-24T01:46:36;-5.52;80.21
75786;DHT22;64402;44.708;37.644;2023-02-24T01:51:53;-5.63;80.22
75786;DHT22;64402;44.708;37.644;2023-02-24T01:54:26;-5.65;79.38
75786;DHT22;64402;44.708;37.644;2023-02-24T01:56:55;-5.65;81.00
75786;DHT22;64402;44.708;37.644;2023-02-24T01:59:25;-5.64;80.48
75786;DHT22;64402;44.708;37.644;2023-02-24T02:01:56;-5.70;81.26
75786;DHT22;64402;44.708;37.644;2023-02-24T02:04:50;-5.70;81.14
75786;DHT22;64402;44.708;37.644;2023-02-24T02:07:21;-5.74;80.30
75786;DHT22;64402;44.708;37.644;2023-02-24T02:09:51;-5.74;81.30
75786;DHT22;64402;44.708;37.644;2023-02-24T02:12:21;-5.70;80.17
75786;DHT22;64402;44.708;37.644;2023-02-24T02:14:51;-5.61;78.75
75786;DHT22;64402;44.708;37.644;2023-02-24T02:20:40;-5.53;78.37
75786;DHT22;64402;44.708;37.644;2023-02-24T02:23:48;-5.50;78.95
75786;DHT22;64402;44.708;37.644;2023-02-24T02:26:42;-5.49;77.37
75786;DHT22;64402;44.708;37.644;2023-02-24T02:34:55;-5.50;77.56
75786;DHT22;64402;44.708;37.644;2023-02-24T02:42:40;-5.20;75.19
75786;DHT22;64402;44.708;37.644;2023-02-24T02:47:44;-5.07;74.46
75786;DHT22;64402;44.708;37.644;2023-02-24T02:50:32;-5.03;73.59
75786;DHT22;64402;44.708;37.644;2023-02-24T02:53:11;-5.00;74.30
75786;DHT22;64402;44.708;37.644;2023-02-24T02:55:46;-4.99;74.12
75786;DHT22;64402;44.708;37.644;2023-02-24T02:58:18;-4.99;74.47
75786;DHT22;64402;44.708;37.644;2023-02-24T03:00:54;-4.97;75.06
75786;DHT22;64402;44.708;37.644;2023-02-24T03:03:41;-4.94;74.67
75786;DHT22;64402;44.708;37.644;2023-02-24T03:06:18;-4.91;73.76
75786;DHT22;64402;44.708;37.644;2023-02-24T03:09:04;-4.89;74.52
75786;DHT22;64402;44.708;37.644;2023-02-24T03:11:45;-4.90;76.34
75786;DHT22;64402;44.708;37.644;2023-02-24T03:14:16;-4.94;77.31
75786;DHT22;64402;44.708;37.644;2023-02-24T03:16:46;-5.02;74.60
75786;DHT22;64402;44.708;37.644;2023-02-24T03:19:20;-4.96;76.05
75786;DHT22;64402;44.708;37.644;2023-02-24T03:22:00;-4.95;76.37
75786;DHT22;64402;44.708;37.644;2023-02-24T03:24:31;-5.00;75.78
75786;DHT22;64402;44.708;37.644;2023-02-24T03:27:07;-5.01;75.85
75786;DHT22;64402;44.708;37.644;2023-02-24T03:32:24;-5.05;77.32
75786;DHT22;64402;44.708;37.644;2023-02-24T03:37:25;-5.09;78.47
75786;DHT22;64402;44.708;37.644;2023-02-24T03:39:54;-5.13;78.34
75786;DHT22;64402;44.708;37.644;2023-02-24T03:42:22;-5.16;77.83
75786;DHT22;64402;44.708;37.644;2023-02-24T03:44:50;-5.12;77.40
75786;DHT22;64402;44.708;37.644;2023-02-24T03:47:17;-5.07;77.72
75786;DHT22;64402;44.708;37.644;2023-02-24T03:49:46;-5.02;77.91
75786;DHT22;64402;44.708;37.644;2023-02-24T03:52:33;-5.05;77.18
75786;DHT22;64402;44.708;37.644;2023-02-24T03:58:13;-5.08;79.74
75786;DHT22;64402;44.708;37.644;2023-02-24T04:06:18;-5.09;79.50
75786;DHT22;64402;44.708;37.644;2023-02-24T04:12:19;-5.11;80.53
75786;DHT22;64402;44.708;37.644;2023-02-24T04:17:43;-5.16;80.56
75786;DHT22;64402;44.708;37.644;2023-02-24T04:20:13;-5.15;79.56
75786;DHT22;64402;44.708;37.644;2023-02-24T04:22:52;-5.13;79.61
75786;DHT22;64402;44.708;37.644;2023-02-24T04:25:22;-5.16;79.56
75786;DHT22;64402;44.708;37.644;2023-02-24T04:27:53;-5.12;80.36
75786;DHT22;64402;44.708;37.644;2023-02-24T04:30:21;-5.08;80.45
75786;DHT22;64402;44.708;37.644;2023-02-24T04:32:48;-5.13;78.84
75786;DHT22;64402;44.708;37.644;2023-02-24T04:35:18;-5.13;78.87
75786;DHT22;64402;44.708;37.644;2023-02-24T04:37:45;-5.11;78.04
75786;DHT22;64402;44.708;37.644;2023-02-24T04:40:14;-5.04;78.35
75786;DHT22;64402;44.708;37.644;2023-02-24T04:42:48;-5.01;78.10
75786;DHT22;64402;44.708;37.644;2023-02-24T04:45:20;-4.97;78.24
75786;DHT22;64402;44.708;37.644;2023-02-24T04:47:53;-4.87;79.21
75786;DHT22;64402;44.708;37.644;2023-02-24T04:50:33;-4.83;78.82
75786;DHT22;64402;44.708;37.644;2023-02-24T04:53:05;-4.72;78.14
75786;DHT22;64402;44.708;37.644;2023-02-24T04:55:36;-4.70;77.27
75786;DHT22;64402;44.708;37.644;2023-02-24T04:58:11;-4.59;78.03
75786;DHT22;64402;44.708;37.644;2023-02-24T05:00:39;-4.48;77.28
75786;DHT22;64402;44.708;37.644;2023-02-24T05:03:10;-4.38;77.03
75786;DHT22;64402;44.708;37.644;2023-02-24T05:05:36;-4.28;77.37
75786;DHT22;64402;44.708;37.644;2023-02-24T05:08:08;-4.26;73.79
75786;DHT22;64402;44.708;37.644;2023-02-24T05:10:40;-4.14;76.06
75786;DHT22;64402;44.708;37.644;2023-02-24T05:13:07;-4.05;75.87
75786;DHT22;64402;44.708;37.644;2023-02-24T05:15:38;-3.92;76.00
75786;DHT22;64402;44.708;37.644;2023-02-24T05:18:06;-3.80;76.32
75786;DHT22;64402;44.708;37.644;2023-02-24T05:20:37;-3.71;75.34
75786;DHT22;64402;44.708;37.644;2023-02-24T05:23:26;-3.60;73.73
75786;DHT22;64402;44.708;37.644;2023-02-24T05:25:52;-3.47;75.07
75786;DHT22;64402;44.708;37.644;2023-02-24T05:28:21;-3.45;73.44
75786;DHT22;64402;44.708;37.644;2023-02-24T05:30:49;-3.39;73.38
75786;DHT22;64402;44.708;37.644;2023-02-24T05:33:16;-3.31;73.67
75786;DHT22;64402;44.708;37.644;2023-02-24T05:35:51;-3.21;72.15
75786;DHT22;64402;44.708;37.644;2023-02-24T05:38:17;-3.06;72.25
75786;DHT22;64402;44.708;37.644;2023-02-24T05:40:47;-2.89;70.68
75786;DHT22;64402;44.708;37.644;2023-02-24T05:43:14;-2.76;70.11
75786;DHT22;64402;44.708;37.644;2023-02-24T05:45:46;-2.65;70.07
75786;DHT22;64402;44.708;37.644;2023-02-24T05:48:13;-2.51;70.24
75786;DHT22;64402;44.708;37.644;2023-02-24T05:50:49;-2.39;69.52
75786;DHT22;64402;44.708;37.644;2023-02-24T05:53:16;-2.22;69.58
75786;DHT22;64402;44.708;37.644;2023-02-24T05:55:45;-2.19;66.55
75786;DHT22;64402;44.708;37.644;2023-02-24T05:58:11;-2.18;69.52
75786;DHT22;64402;44.708;37.644;2023-02-24T06:00:37;-2.01;68.94
75786;DHT22;64402;44.708;37.644;2023-02-24T06:03:05;-1.87;68.84
75786;DHT22;64402;44.708;37.644;2023-02-24T06:05:42;-1.61;67.00
75786;DHT22;64402;44.708;37.644;2023-02-24T06:08:09;-1.44;66.00
75786;DHT22;64402;44.708;37.644;2023-02-24T06:10:38;-1.25;65.67
75786;DHT22;64402;44.708;37.644;2023-02-24T06:13:07;-1.08;65.07
75786;DHT22;64402;44.708;37.644;2023-02-24T06:15:33;-0.86;64.62
75786;DHT22;64402;44.708;37.644;2023-02-24T06:18:00;-0.61;62.41
75786;DHT22;64402;44.708;37.644;2023-02-24T06:20:28;-0.38;61.48
75786;DHT22;64402;44.708;37.644;2023-02-24T06:22:54;-0.25;61.20
75786;DHT22;64402;44.708;37.644;2023-02-24T06:25:24;-0.10;60.47
75786;DHT22;64402;44.708;37.644;2023-02-24T06:27:52;0.08;61.11
75786;DHT22;64402;44.708;37.644;2023-02-24T06:30:24;0.31;59.03
75786;DHT22;64402;44.708;37.644;2023-02-24T06:32:52;0.63;60.32
75786;DHT22;64402;44.708;37.644;2023-02-24T06:35:19;0.91;57.77
75786;DHT22;64402;44.708;37.644;2023-02-24T06:37:46;1.29;56.35
75786;DHT22;64402;44.708;37.644;2023-02-24T06:40:13;1.73;54.23
75786;DHT22;64402;44.708;37.644;2023-02-24T06:42:51;1.97;51.53
75786;DHT22;64402;44.708;37.644;2023-02-24T06:45:21;2.10;52.36
75786;DHT22;64402;44.708;37.644;2023-02-24T06:47:47;2.10;51.00
75786;DHT22;64402;44.708;37.644;2023-02-24T06:50:15;2.47;49.35
75786;DHT22;64402;44.708;37.644;2023-02-24T06:52:46;3.12;49.47
75786;DHT22;64402;44.708;37.644;2023-02-24T06:55:12;3.54;48.44
75786;DHT22;64402;44.708;37.644;2023-02-24T06:57:58;4.04;47.67
75786;DHT22;64402;44.708;37.644;2023-02-24T07:00:31;4.44;44.21
75786;DHT22;64402;44.708;37.644;2023-02-24T07:03:05;5.57;44.07
75786;DHT22;64402;44.708;37.644;2023-02-24T07:05:51;6.57;39.14
75786;DHT22;64402;44.708;37.644;2023-02-24T07:08:36;7.15;39.41
75786;DHT22;64402;44.708;37.644;2023-02-24T07:11:03;8.22;38.32
75786;DHT22;64402;44.708;37.644;2023-02-24T07:13:31;8.52;38.75
75786;DHT22;64402;44.708;37.644;2023-02-24T07:16:00;9.34;36.05
75786;DHT22;64402;44.708;37.644;2023-02-24T07:18:35;9.69;34.02
75786;DHT22;64402;44.708;37.644;2023-02-24T07:21:06;9.81;33.75
75786;DHT22;64402;44.708;37.644;2023-02-24T07:23:39;10.26;34.87
75786;DHT22;64402;44.708;37.644;2023-02-24T07:26:06;10.56;32.87
75786;DHT22;64402;44.708;37.644;2023-02-24T07:28:35;9.79;30.58
75786;DHT22;64402;44.708;37.644;2023-02-24T07:31:10;9.98;35.48
75786;DHT22;64402;44.708;37.644;2023-02-24T07:33:40;10.13;32.44
75786;DHT22;64402;44.708;37.644;2023-02-24T07:36:12;9.50;32.64
75786;DHT22;64402;44.708;37.644;2023-02-24T07:38:41;9.59;32.14
75786;DHT22;64402;44.708;37.644;2023-02-24T07:41:09;10.49;32.28
75786;DHT22;64402;44.708;37.644;2023-02-24T07:43:37;11.70;28.00
75786;DHT22;64402;44.708;37.644;2023-02-24T07:46:14;12.71;27.06
75786;DHT22;64402;44.708;37.644;2023-02-24T07:48:41;13.80;28.09
75786;DHT22;64402;44.708;37.644;2023-02-24T07:51:08;14.42;25.74
75786;DHT22;64402;44.708;37.644;2023-02-24T07:53:35;13.25;28.37
75786;DHT22;64402;44.708;37.644;2023-02-24T07:56:09;11.00;27.33
75786;DHT22;64402;44.708;37.644;2023-02-24T07:58:47;9.59;32.41
75786;DHT22;64402;44.708;37.644;2023-02-24T08:01:18;9.14;32.84
75786;DHT22;64402;44.708;37.644;2023-02-24T08:03:55;9.78;29.87
75786;DHT22;64402;44.708;37.644;2023-02-24T08:06:23;9.68;32.28
75786;DHT22;64402;44.708;37.644;2023-02-24T08:08:55;10.29;29.34
75786;DHT22;64402;44.708;37.644;2023-02-24T08:11:29;11.15;28.81
75786;DHT22;64402;44.708;37.644;2023-02-24T08:14:04;10.85;30.22
75786;DHT22;64402;44.708;37.644;2023-02-24T08:16:36;11.26;29.60
75786;DHT22;64402;44.708;37.644;2023-02-24T08:19:05;11.68;27.33
75786;DHT22;64402;44.708;37.644;2023-02-24T08:21:32;11.52;27.96
75786;DHT22;64402;44.708;37.644;2023-02-24T08:24:04;11.39;27.27
75786;DHT22;64402;44.708;37.644;2023-02-24T08:26:30;11.40;27.25
75786;DHT22;64402;44.708;37.644;2023-02-24T08:28:57;11.44;28.66
75786;DHT22;64402;44.708;37.644;2023-02-24T08:31:23;10.09;30.36
75786;DHT22;64402;44.708;37.644;2023-02-24T08:33:49;9.86;32.51
75786;DHT22;64402;44.708;37.644;2023-02-24T08:36:15;9.55;32.62
75786;DHT22;64402;44.708;37.644;2023-02-24T08:38:46;9.56;31.24
75786;DHT22;64402;44.708;37.644;2023-02-24T08:41:19;10.15;31.05
75786;DHT22;64402;44.708;37.644;2023-02-24T08:43:54;10.57;31.50
75786;DHT22;64402;44.708;37.644;2023-02-24T08:46:22;11.36;30.06
75786;DHT22;64402;44.708;37.644;2023-02-24T08:48:58;12.40;27.84
75786;DHT22;64402;44.708;37.644;2023-02-24T08:51:30;13.54;26.63
75786;DHT22;64402;44.708;37.644;2023-02-24T08:54:07;14.41;25.85
75786;DHT22;64402;44.708;37.644;2023-02-24T08:56:36;14.95;25.51
75786;DHT22;64402;44.708;37.644;2023-02-24T08:59:10;14.93;26.39
75786;DHT22;64402;44.708;37.644;2023-02-24T09:01:58;15.59;24.40
75786;DHT22;64402;44.708;37.644;2023-02-24T09:04:44;15.70;25.56
75786;DHT22;64402;44.708;37.644;2023-02-24T09:07:33;15.27;24.75
75786;DHT22;64402;44.708;37.644;2023-02-24T09:10:05;15.17;23.93
75786;DHT22;64402;44.708;37.644;2023-02-24T09:12:37;14.81;25.96
75786;DHT22;64402;44.708;37.644;2023-02-24T09:15:07;14.97;21.40
75786;DHT22;64402;44.708;37.644;2023-02-24T09:17:34;15.26;23.81
75786;DHT22;64402;44.708;37.644;2023-02-24T09:20:18;15.18;22.42
75786;DHT22;64402;44.708;37.644;2023-02-24T09:23:03;15.16;24.87
75786;DHT22;64402;44.708;37.644;2023-02-24T09:25:34;15.59;23.01
75786;DHT22;64402;44.708;37.644;2023-02-24T09:28:14;15.98;23.86
75786;DHT22;64402;44.708;37.644;2023-02-24T09:30:49;16.20;24.64
75786;DHT22;64402;44.708;37.644;2023-02-24T09:33:26;15.96;25.34
75786;DHT22;64402;44.708;37.644;2023-02-24T09:36:01;15.90;25.95
75786;DHT22;64402;44.708;37.644;2023-02-24T09:38:35;15.77;26.83
75786;DHT22;64402;44.708;37.644;2023-02-24T09:44:04;16.81;26.53
75786;DHT22;64402;44.708;37.644;2023-02-24T09:46:37;15.52;29.22
75786;DHT22;64402;44.708;37.644;2023-02-24T09:49:13;15.61;28.98
75786;DHT22;64402;44.708;37.644;2023-02-24T09:51:42;14.58;31.81
75786;DHT22;64402;44.708;37.644;2023-02-24T09:54:19;14.88;30.61
75786;DHT22;64402;44.708;37.644;2023-02-24T09:57:02;15.71;30.71
75786;DHT22;64402;44.708;37.644;2023-02-24T09:59:51;15.98;32.44
75786;DHT22;64402;44.708;37.644;2023-02-24T10:03:17;16.22;31.11
75786;DHT22;64402;44.708;37.644;2023-02-24T10:06:20;16.60;30.15
75786;DHT22;64402;44.708;37.644;2023-02-24T10:09:12;15.89;31.97
75786;DHT22;64402;44.708;37.644;2023-02-24T10:11:44;16.28;31.09
75786;DHT22;64402;44.708;37.644;2023-02-24T10:17:21;16.63;31.55
75786;DHT22;64402;44.708;37.644;2023-02-24T10:20:00;16.55;32.33
75786;DHT22;64402;44.708;37.644;2023-02-24T10:28:43;17.22;29.39
75786;DHT22;64402;44.708;37.644;2023-02-24T10:31:14;17.29;30.34
75786;DHT22;64402;44.708;37.644;2023-02-24T10:33:53;17.59;30.25
75786;DHT22;64402;44.708;37.644;2023-02-24T10:36:22;18.65;29.39
75786;DHT22;64402;44.708;37.644;2023-02-24T10:41:42;18.72;28.19
75786;DHT22;64402;44.708;37.644;2023-02-24T10:44:10;18.37;29.31
75786;DHT22;64402;44.708;37.644;2023-02-24T10:46:36;17.72;30.66
75786;DHT22;64402;44.708;37.644;2023-02-24T10:49:09;17.98;29.87
75786;DHT22;64402;44.708;37.644;2023-02-24T10:51:39;18.17;30.09
75786;DHT22;64402;44.708;37.644;2023-02-24T10:54:32;17.77;30.22
75786;DHT22;64402;44.708;37.644;2023-02-24T10:57:29;16.40;33.21
75786;DHT22;64402;44.708;37.644;2023-02-24T11:00:17;16.89;32.15
75786;DHT22;64402;44.708;37.644;2023-02-24T11:03:08;17.54;30.99
75786;DHT22;64402;44.708;37.644;2023-02-24T11:05:41;17.73;30.66
75786;DHT22;64402;44.708;37.644;2023-02-24T11:08:32;17.09;31.75
75786;DHT22;64402;44.708;37.644;2023-02-24T11:11:28;15.71;35.60
75786;DHT22;64402;44.708;37.644;2023-02-24T11:14:00;13.31;40.24
75786;DHT22;64402;44.708;37.644;2023-02-24T11:19:38;14.05;39.45
75786;DHT22;64402;44.708;37.644;2023-02-24T11:22:19;16.20;35.11
75786;DHT22;64402;44.708;37.644;2023-02-24T11:24:46;16.44;31.07
75786;DHT22;64402;44.708;37.644;2023-02-24T11:27:15;16.16;32.79
75786;DHT22;64402;44.708;37.644;2023-02-24T11:33:16;16.04;25.01
75786;DHT22;64402;44.708;37.644;2023-02-24T11:38:45;15.78;24.88
75786;DHT22;64402;44.708;37.644;2023-02-24T11:41:38;15.62;24.09
75786;DHT22;64402;44.708;37.644;2023-02-24T11:46:58;16.54;23.59
75786;DHT22;64402;44.708;37.644;2023-02-24T11:49:37;15.90;23.95
75786;DHT22;64402;44.708;37.644;2023-02-24T11:52:11;16.45;25.56
75786;DHT22;64402;44.708;37.644;2023-02-24T11:54:48;16.54;25.45
75786;DHT22;64402;44.708;37.644;2023-02-24T11:57:35;16.27;26.03
75786;DHT22;64402;44.708;37.644;2023-02-24T12:03:07;17.29;25.00
75786;DHT22;64402;44.708;37.644;2023-02-24T12:05:42;16.94;25.91
75786;DHT22;64402;44.708;37.644;2023-02-24T12:08:29;16.61;25.75
75786;DHT22;64402;44.708;37.644;2023-02-24T12:14:32;16.80;27.35
75786;DHT22;64402;44.708;37.644;2023-02-24T12:16:42;16.02;27.64
75786;DHT22;64402;44.708;37.644;2023-02-24T12:19:28;15.82;27.20
75786;DHT22;64402;44.708;37.644;2023-02-24T12:22:10;15.44;29.23
75786;DHT22;64402;44.708;37.644;2023-02-24T12:24:38;15.47;30.22
75786;DHT22;64402;44.708;37.644;2023-02-24T12:32:54;15.25;29.55
75786;DHT22;64402;44.708;37.644;2023-02-24T12:35:32;15.42;28.30
75786;DHT22;64402;44.708;37.644;2023-02-24T12:43:45;16.65;26.80
75786;DHT22;64402;44.708;37.644;2023-02-24T12:51:44;16.51;27.28
75786;DHT22;64402;44.708;37.644;2023-02-24T12:59:55;16.32;28.10
75786;DHT22;64402;44.708;37.644;2023-02-24T13:02:44;16.49;27.29
75786;DHT22;64402;44.708;37.644;2023-02-24T13:05:19;16.05;27.36
75786;DHT22;64402;44.708;37.644;2023-02-24T13:10:43;15.26;30.25
75786;DHT22;64402;44.708;37.644;2023-02-24T13:15:58;17.75;24.52
75786;DHT22;64402;44.708;37.644;2023-02-24T13:18:30;17.94;24.24
75786;DHT22;64402;44.708;37.644;2023-02-24T13:23:41;16.61;25.94
75786;DHT22;64402;44.708;37.644;2023-02-24T13:26:07;17.08;25.36
75786;DHT22;64402;44.708;37.644;2023-02-24T13:28:35;17.04;26.50
75786;DHT22;64402;44.708;37.644;2023-02-24T13:33:35;16.79;26.44
75786;DHT22;64402;44.708;37.644;2023-02-24T13:36:19;17.10;26.53
75786;DHT22;64402;44.708;37.644;2023-02-24T13:44:26;13.54;34.44
75786;DHT22;64402;44.708;37.644;2023-02-24T13:53:02;13.40;34.79
75786;DHT22;64402;44.708;37.644;2023-02-24T13:58:44;12.87;36.56
75786;DHT22;64402;44.708;37.644;2023-02-24T14:01:10;13.41;34.67
75786;DHT22;64402;44.708;37.644;2023-02-24T14:03:41;13.74;33.08
75786;DHT22;64402;44.708;37.644;2023-02-24T14:06:23;13.82;32.95
75786;DHT22;64402;44.708;37.644;2023-02-24T14:08:56;13.54;34.76
75786;DHT22;64402;44.708;37.644;2023-02-24T14:11:24;14.42;33.48
75786;DHT22;64402;44.708;37.644;2023-02-24T14:13:53;14.54;32.42
75786;DHT22;64402;44.708;37.644;2023-02-24T14:16:23;13.41;36.30
75786;DHT22;64402;44.708;37.644;2023-02-24T14:18:58;13.63;36.71
75786;DHT22;64402;44.708;37.644;2023-02-24T14:21:29;13.73;36.48
75786;DHT22;64402;44.708;37.644;2023-02-24T14:24:03;11.90;38.15
75786;DHT22;64402;44.708;37.644;2023-02-24T14:26:42;11.08;40.43
75786;DHT22;64402;44.708;37.644;2023-02-24T14:29:09;10.89;43.81
75786;DHT22;64402;44.708;37.644;2023-02-24T14:31:35;10.69;46.10
75786;DHT22;64402;44.708;37.644;2023-02-24T14:34:04;10.14;46.38
75786;DHT22;64402;44.708;37.644;2023-02-24T14:36:40;9.99;47.27
75786;DHT22;64402;44.708;37.644;2023-02-24T14:41:50;9.48;47.73
75786;DHT22;64402;44.708;37.644;2023-02-24T14:44:28;8.95;49.44
75786;DHT22;64402;44.708;37.644;2023-02-24T14:46:57;8.41;51.07
75786;DHT22;64402;44.708;37.644;2023-02-24T14:49:32;8.06;52.65
75786;DHT22;64402;44.708;37.644;2023-02-24T14:52:03;7.87;54.18
75786;DHT22;64402;44.708;37.644;2023-02-24T14:57:21;7.31;56.65
75786;DHT22;64402;44.708;37.644;2023-02-24T14:59:51;7.13;55.95
75786;DHT22;64402;44.708;37.644;2023-02-24T15:02:21;6.83;58.19
75786;DHT22;64402;44.708;37.644;2023-02-24T15:04:52;6.64;59.57
75786;DHT22;64402;44.708;37.644;2023-02-24T15:07:22;6.49;59.63
75786;DHT22;64402;44.708;37.644;2023-02-24T15:09:51;6.40;58.93
75786;DHT22;64402;44.708;37.644;2023-02-24T15:14:55;6.19;60.18
75786;DHT22;64402;44.708;37.644;2023-02-24T15:17:22;6.10;59.30
75786;DHT22;64402;44.708;37.644;2023-02-24T15:19:49;5.99;59.59
75786;DHT22;64402;44.708;37.644;2023-02-24T15:22:22;5.92;61.35
75786;DHT22;64402;44.708;37.644;2023-02-24T15:27:34;5.86;61.73
75786;DHT22;64402;44.708;37.644;2023-02-24T15:30:04;5.83;62.76
75786;DHT22;64402;44.708;37.644;2023-02-24T15:32:33;5.79;63.66
75786;DHT22;64402;44.708;37.644;2023-02-24T15:35:00;5.74;64.12
75786;DHT22;64402;44.708;37.644;2023-02-24T15:37:32;5.69;65.04
75786;DHT22;64402;44.708;37.644;2023-02-24T15:40:15;5.69;64.61
75786;DHT22;64402;44.708;37.644;2023-02-24T15:42:49;5.76;64.54
75786;DHT22;64402;44.708;37.644;2023-02-24T15:45:28;5.70;64.88
75786;DHT22;64402;44.708;37.644;2023-02-24T15:47:57;5.69;65.33
75786;DHT22;64402;44.708;37.644;2023-02-24T15:50:24;5.69;65.02
75786;DHT22;64402;44.708;37.644;2023-02-24T15:52:51;5.74;65.70
75786;DHT22;64402;44.708;37.644;2023-02-24T15:55:18;5.75;66.30
75786;DHT22;64402;44.708;37.644;2023-02-24T15:57:45;5.77;66.82
75786;DHT22;64402;44.708;37.644;2023-02-24T16:00:15;5.77;67.02
75786;DHT22;64402;44.708;37.644;2023-02-24T16:02:43;5.78;67.32
75786;DHT22;64402;44.708;37.644;2023-02-24T16:05:13;5.77;67.05
75786;DHT22;64402;44.708;37.644;2023-02-24T16:07:40;5.79;67.30
75786;DHT22;64402;44.708;37.644;2023-02-24T16:10:15;5.81;67.75
75786;DHT22;64402;44.708;37.644;2023-02-24T16:13:02;5.90;68.10
75786;DHT22;64402;44.708;37.644;2023-02-24T16:15:32;5.95;67.70
75786;DHT22;64402;44.708;37.644;2023-02-24T16:17:59;6.01;68.10
75786;DHT22;64402;44.708;37.644;2023-02-24T16:20:28;6.04;67.99
75786;DHT22;64402;44.708;37.644;2023-02-24T16:23:02;6.04;68.55
75786;DHT22;64402;44.708;37.644;2023-02-24T16:25:39;6.07;68.21
75786;DHT22;64402;44.708;37.644;2023-02-24T16:28:06;6.07;67.79
75786;DHT22;64402;44.708;37.644;2023-02-24T16:30:33;6.08;67.75
75786;DHT22;64402;44.708;37.644;2023-02-24T16:33:00;6.05;67.55
75786;DHT22;64402;44.708;37.644;2023-02-24T16:35:26;6.02;67.22
75786;DHT22;64402;44.708;37.644;2023-02-24T16:37:53;6.04;67.50
75786;DHT22;64402;44.708;37.644;2023-02-24T16:40:23;6.04;67.20
75786;DHT22;64402;44.708;37.644;2023-02-24T16:42:51;6.05;66.38
75786;DHT22;64402;44.708;37.644;2023-02-24T16:45:19;6.07;66.65
75786;DHT22;64402;44.708;37.644;2023-02-24T16:47:47;6.07;65.84
75786;DHT22;64402;44.708;37.644;2023-02-24T16:50:22;6.04;66.02
75786;DHT22;64402;44.708;37.644;2023-02-24T16:52:48;6.01;66.46
75786;DHT22;64402;44.708;37.644;2023-02-24T16:55:16;5.98;67.72
75786;DHT22;64402;44.708;37.644;2023-02-24T16:57:43;5.94;67.43
75786;DHT22;64402;44.708;37.644;2023-02-24T17:00:11;5.95;67.24
75786;DHT22;64402;44.708;37.644;2023-02-24T17:02:39;5.95;67.39
75786;DHT22;64402;44.708;37.644;2023-02-24T17:05:17;5.96;67.39
75786;DHT22;64402;44.708;37.644;2023-02-24T17:07:46;5.96;67.72
75786;DHT22;64402;44.708;37.644;2023-02-24T17:10:12;5.93;67.68
75786;DHT22;64402;44.708;37.644;2023-02-24T17:12:39;5.97;67.76
75786;DHT22;64402;44.708;37.644;2023-02-24T17:15:06;6.04;68.72
75786;DHT22;64402;44.708;37.644;2023-02-24T17:17:33;6.04;69.29
75786;DHT22;64402;44.708;37.644;2023-02-24T17:20:01;6.01;69.74
75786;DHT22;64402;44.708;37.644;2023-02-24T17:22:27;6.01;70.05
75786;DHT22;64402;44.708;37.644;2023-02-24T17:24:53;6.00;68.96
75786;DHT22;64402;44.708;37.644;2023-02-24T17:27:20;6.08;69.32
75786;DHT22;64402;44.708;37.644;2023-02-24T17:29:46;6.14;68.58
75786;DHT22;64402;44.708;37.644;2023-02-24T17:32:12;6.17;68.99
75786;DHT22;64402;44.708;37.644;2023-02-24T17:34:38;6.14;68.78
75786;DHT22;64402;44.708;37.644;2023-02-24T17:37:04;6.10;69.79
75786;DHT22;64402;44.708;37.644;2023-02-24T17:39:30;6.12;70.16
75786;DHT22;64402;44.708;37.644;2023-02-24T17:41:56;6.13;70.15
75786;DHT22;64402;44.708;37.644;2023-02-24T17:44:22;6.09;69.75
75786;DHT22;64402;44.708;37.644;2023-02-24T17:46:48;6.02;69.02
75786;DHT22;64402;44.708;37.644;2023-02-24T17:49:16;5.96;68.57
75786;DHT22;64402;44.708;37.644;2023-02-24T17:51:42;5.91;68.90
75786;DHT22;64402;44.708;37.644;2023-02-24T17:54:09;5.92;68.43
75786;DHT22;64402;44.708;37.644;2023-02-24T17:56:35;5.91;68.25
75786;DHT22;64402;44.708;37.644;2023-02-24T17:59:01;5.93;67.94
75786;DHT22;64402;44.708;37.644;2023-02-24T18:01:28;5.94;68.36
75786;DHT22;64402;44.708;37.644;2023-02-24T18:03:54;5.89;68.15